createdAt,value
2018-02-21T00:02:08.301Z,102.27
2018-02-21T00:04:36.794Z,142.87
2018-02-21T00:07:05.331Z,92.73
2018-02-21T00:09:34.622Z,95.37
2018-02-21T00:12:03.186Z,88.43
2018-02-21T00:14:31.784Z,88.67
2018-02-21T00:17:00.351Z,83.17
2018-02-21T00:19:28.879Z,86.50
2018-02-21T00:21:57.413Z,86.40
2018-02-21T00:24:25.938Z,83.60
2018-02-21T00:26:55.269Z,91.90
2018-02-21T00:29:23.774Z,85.23
2018-02-21T00:31:52.335Z,82.87
2018-02-21T00:34:20.862Z,90.67
2018-02-21T00:36:49.435Z,82.83
2018-02-21T00:39:17.998Z,88.43
2018-02-21T00:41:46.528Z,83.87
2018-02-21T00:44:15.829Z,90.33
2018-02-21T00:46:45.168Z,83.50
2018-02-21T00:49:13.711Z,89.83
2018-02-21T00:51:43.040Z,87.13
2018-02-21T00:54:11.599Z,92.10
2018-02-21T00:56:40.912Z,87.07
2018-02-21T00:59:09.419Z,80.43
2018-02-21T01:01:37.979Z,85.53
2018-02-21T01:04:06.539Z,90.13
2018-02-21T01:06:35.866Z,89.23
2018-02-21T01:09:03.807Z,86.87
2018-02-21T01:11:33.100Z,93.77
2018-02-21T01:14:01.656Z,86.37
2018-02-21T01:16:30.200Z,82.83
2018-02-21T01:18:58.770Z,100.13
2018-02-21T01:21:27.303Z,87.77
2018-02-21T01:23:55.824Z,90.50
2018-02-21T01:26:24.390Z,88.10
2018-02-21T01:28:52.931Z,95.33
2018-02-21T01:31:21.514Z,94.73
2018-02-21T01:33:50.502Z,93.07
2018-02-21T01:36:19.006Z,92.43
2018-02-21T01:38:47.555Z,96.60
2018-02-21T01:41:16.094Z,89.30
2018-02-21T01:43:45.071Z,99.87
2018-02-21T01:46:13.620Z,95.53
2018-02-21T01:48:42.910Z,94.03
2018-02-21T01:51:11.471Z,94.87
2018-02-21T01:53:40.314Z,89.62
2018-02-21T01:56:09.087Z,90.57
2018-02-21T01:58:37.834Z,88.43
2018-02-21T02:01:06.660Z,87.72
2018-02-21T02:03:35.498Z,91.00
2018-02-21T02:06:04.335Z,88.57
2018-02-21T02:08:45.188Z,89.50
2018-02-21T02:11:14.018Z,83.65
2018-02-21T02:13:42.576Z,93.77
2018-02-21T02:16:11.425Z,89.32
2018-02-21T02:18:40.269Z,94.30
2018-02-21T02:21:08.849Z,90.70
2018-02-21T02:23:37.675Z,93.12
2018-02-21T02:26:06.506Z,91.70
2018-02-21T02:28:36.125Z,93.18
2018-02-21T02:31:05.752Z,94.70
2018-02-21T02:33:34.620Z,96.07
2018-02-21T02:36:04.207Z,93.82
2018-02-21T02:38:41.149Z,98.80
2018-02-21T02:41:09.959Z,104.53
2018-02-21T02:43:38.794Z,102.82
2018-02-21T02:46:07.624Z,113.12
2018-02-21T02:48:36.451Z,111.90
2018-02-21T02:51:06.059Z,108.20
2018-02-21T02:53:34.871Z,101.78
2018-02-21T02:56:03.711Z,114.20
2018-02-21T02:58:32.567Z,115.70
2018-02-21T03:01:01.342Z,101.15
2018-02-21T03:03:30.175Z,109.57
2018-02-21T03:05:59.013Z,114.43
2018-02-21T03:08:27.839Z,108.53
2018-02-21T03:10:57.472Z,107.63
2018-02-21T03:13:26.320Z,112.10
2018-02-21T03:15:55.166Z,110.80
2018-02-21T03:18:23.999Z,114.65
2018-02-21T03:20:52.798Z,111.88
2018-02-21T03:23:28.243Z,106.43
2018-02-21T03:25:57.014Z,121.00
2018-02-21T03:28:25.863Z,118.97
2018-02-21T03:30:54.692Z,121.45
2018-02-21T03:33:23.473Z,117.68
2018-02-21T03:35:52.306Z,116.88
2018-02-21T03:38:21.085Z,117.40
2018-02-21T03:40:49.937Z,114.82
2018-02-21T03:43:18.764Z,115.45
2018-02-21T03:45:47.578Z,109.25
2018-02-21T03:48:16.410Z,114.70
2018-02-21T03:50:45.258Z,110.37
2018-02-21T03:53:14.102Z,115.07
2018-02-21T03:55:42.907Z,117.78
2018-02-21T03:58:11.744Z,115.80
2018-02-21T04:00:40.601Z,119.78
2018-02-21T04:03:09.453Z,119.55
2018-02-21T04:05:38.291Z,114.40
2018-02-21T04:08:07.911Z,112.25
2018-02-21T04:10:37.539Z,112.62
2018-02-21T04:13:06.395Z,114.15
2018-02-21T04:15:35.223Z,114.43
2018-02-21T04:18:04.051Z,113.53
2018-02-21T04:20:32.910Z,113.88
2018-02-21T04:23:01.713Z,110.35
2018-02-21T04:25:30.561Z,110.95
2018-02-21T04:27:59.380Z,111.95
2018-02-21T04:30:28.240Z,117.70
2018-02-21T04:32:57.064Z,113.55
2018-02-21T04:35:25.913Z,121.90
2018-02-21T04:37:54.734Z,120.43
2018-02-21T04:40:23.390Z,121.90
2018-02-21T04:42:52.197Z,120.13
2018-02-21T04:45:21.021Z,116.82
2018-02-21T04:47:49.847Z,122.40
2018-02-21T04:50:19.160Z,118.20
2018-02-21T04:52:47.935Z,109.70
2018-02-21T04:58:33.568Z,119.47
2018-02-21T05:01:02.337Z,120.45
2018-02-21T05:03:31.904Z,120.80
2018-02-21T05:06:00.712Z,115.47
2018-02-21T05:08:29.648Z,114.62
2018-02-21T05:10:59.234Z,107.50
2018-02-21T05:13:28.051Z,119.10
2018-02-21T05:15:56.838Z,109.47
2018-02-21T05:18:26.729Z,113.03
2018-02-21T05:20:55.650Z,110.93
2018-02-21T05:23:24.486Z,112.53
2018-02-21T05:25:53.312Z,109.40
2018-02-21T05:28:22.077Z,105.47
2018-02-21T05:30:50.888Z,112.85
2018-02-21T05:33:19.713Z,106.40
2018-02-21T05:35:48.365Z,98.95
2018-02-21T05:38:17.175Z,100.78
2018-02-21T05:40:46.036Z,106.32
2018-02-21T05:43:21.996Z,102.32
2018-02-21T05:45:50.802Z,98.12
2018-02-21T05:48:19.577Z,97.30
2018-02-21T05:50:49.153Z,105.22
2018-02-21T05:53:17.948Z,105.90
2018-02-21T05:55:58.673Z,100.18
2018-02-21T05:58:27.484Z,101.07
2018-02-21T06:00:56.263Z,103.07
2018-02-21T06:03:25.841Z,94.45
2018-02-21T06:05:54.612Z,89.15
2018-02-21T06:08:23.431Z,91.95
2018-02-21T06:10:52.236Z,92.60
2018-02-21T06:13:21.031Z,92.10
2018-02-21T06:15:50.619Z,96.40
2018-02-21T06:18:19.105Z,96.97
2018-02-21T06:20:47.930Z,84.40
2018-02-21T06:23:17.515Z,86.60
2018-02-21T06:25:46.304Z,88.43
2018-02-21T06:28:15.116Z,88.12
2018-02-21T06:30:44.667Z,92.43
2018-02-21T06:33:13.522Z,94.65
2018-02-21T06:35:43.097Z,87.62
2018-02-21T06:38:11.881Z,82.15
2018-02-21T06:40:40.679Z,87.30
2018-02-21T06:43:09.442Z,87.60
2018-02-21T06:45:38.249Z,86.05
2018-02-21T06:48:10.908Z,89.28
2018-02-21T06:50:39.716Z,91.35
2018-02-21T06:53:08.592Z,81.97
2018-02-21T06:55:37.366Z,93.35
2018-02-21T06:58:06.183Z,89.25
2018-02-21T07:00:34.971Z,76.18
2018-02-21T07:03:03.768Z,82.18
2018-02-21T07:05:32.600Z,91.07
2018-02-21T07:08:01.372Z,84.03
2018-02-21T07:10:30.168Z,98.45
2018-02-21T07:12:58.956Z,114.25
2018-02-21T07:15:27.823Z,93.18
2018-02-21T07:17:56.805Z,104.15
2018-02-21T07:20:25.574Z,103.93
2018-02-21T07:22:55.143Z,87.05
2018-02-21T07:25:23.925Z,91.63
2018-02-21T07:27:52.732Z,88.10
2018-02-21T07:30:21.545Z,82.32
2018-02-21T07:32:50.339Z,88.20
2018-02-21T07:35:19.939Z,77.80
2018-02-21T07:37:53.472Z,82.00
2018-02-21T07:40:22.439Z,81.47
2018-02-21T07:42:51.248Z,87.40
2018-02-21T07:45:20.783Z,79.12
2018-02-21T07:47:49.586Z,86.95
2018-02-21T07:50:18.361Z,83.87
2018-02-21T07:52:47.159Z,89.72
2018-02-21T07:55:15.990Z,84.35
2018-02-21T07:57:44.788Z,80.28
2018-02-21T08:00:13.784Z,91.53
2018-02-21T08:02:42.547Z,86.03
2018-02-21T08:05:11.351Z,98.28
2018-02-21T08:07:40.148Z,80.07
2018-02-21T08:10:08.916Z,80.50
2018-02-21T08:12:37.725Z,84.43
2018-02-21T08:15:06.496Z,74.53
2018-02-21T08:17:35.336Z,89.87
2018-02-21T08:20:05.997Z,84.13
2018-02-21T08:22:34.802Z,93.20
2018-02-21T08:25:03.448Z,90.45
2018-02-21T08:27:32.992Z,94.85
2018-02-21T08:30:13.404Z,93.53
2018-02-21T08:32:42.171Z,87.68
2018-02-21T08:35:10.959Z,106.55
2018-02-21T08:37:40.868Z,94.57
2018-02-21T08:40:09.644Z,68.57
2018-02-21T08:42:39.615Z,85.18
2018-02-21T08:45:08.417Z,78.50
2018-02-21T08:47:37.987Z,71.12
2018-02-21T08:50:06.766Z,66.87
2018-02-21T08:52:35.576Z,66.70
2018-02-21T08:55:04.370Z,68.97
2018-02-21T08:57:33.132Z,81.57
2018-02-21T09:00:01.923Z,73.00
2018-02-21T09:02:30.735Z,63.75
2018-02-21T09:04:59.240Z,64.50
2018-02-21T09:07:28.037Z,60.42
2018-02-21T09:10:03.063Z,65.00
2018-02-21T09:12:32.370Z,61.40
2018-02-21T09:15:01.236Z,65.72
2018-02-21T09:17:29.730Z,63.27
2018-02-21T09:19:59.044Z,63.53
2018-02-21T09:22:27.816Z,59.65
2018-02-21T09:24:56.337Z,60.93
2018-02-21T09:27:24.862Z,59.43
2018-02-21T09:29:58.415Z,54.17
2018-02-21T09:32:26.926Z,54.30
2018-02-21T09:34:55.425Z,58.27
2018-02-21T09:37:25.991Z,57.10
2018-02-21T09:39:54.580Z,62.70
2018-02-21T09:42:23.190Z,53.83
2018-02-21T09:44:51.768Z,57.73
2018-02-21T09:47:21.109Z,53.10
2018-02-21T09:49:50.471Z,55.63
2018-02-21T09:52:19.827Z,53.90
2018-02-21T09:54:50.593Z,52.40
2018-02-21T09:57:19.178Z,49.70
2018-02-21T09:59:47.661Z,53.57
2018-02-21T10:02:16.175Z,54.97
2018-02-21T10:04:45.431Z,49.70
2018-02-21T10:07:13.995Z,54.43
2018-02-21T10:09:43.136Z,79.27
2018-02-21T10:12:11.631Z,58.43
2018-02-21T10:14:40.151Z,58.07
2018-02-21T10:17:08.632Z,51.80
2018-02-21T10:19:37.143Z,45.60
2018-02-21T10:22:05.658Z,47.87
2018-02-21T10:24:34.165Z,47.23
2018-02-21T10:27:03.460Z,43.63
2018-02-21T10:29:31.946Z,45.60
2018-02-21T10:32:00.489Z,41.87
2018-02-21T10:34:29.028Z,42.00
2018-02-21T10:36:58.573Z,44.57
2018-02-21T10:39:27.094Z,47.30
2018-02-21T10:41:55.585Z,42.33
2018-02-21T10:44:24.111Z,43.57
2018-02-21T10:46:52.819Z,44.17
2018-02-21T10:49:25.143Z,44.20
2018-02-21T10:51:53.677Z,41.57
2018-02-21T10:54:29.224Z,44.03
2018-02-21T10:56:57.810Z,42.50
2018-02-21T10:59:26.362Z,45.17
2018-02-21T11:01:54.921Z,42.07
2018-02-21T11:04:24.316Z,40.43
2018-02-21T11:06:52.929Z,45.13
2018-02-21T11:09:22.270Z,44.67
2018-02-21T11:11:50.850Z,42.70
2018-02-21T11:14:19.439Z,43.77
2018-02-21T11:16:48.058Z,45.53
2018-02-21T11:19:16.655Z,42.40
2018-02-21T11:21:45.290Z,40.13
2018-02-21T11:24:13.927Z,43.87
2018-02-21T11:26:42.568Z,41.70
2018-02-21T11:29:11.114Z,43.47
2018-02-21T11:31:40.504Z,40.33
2018-02-21T11:34:09.126Z,37.73
2018-02-21T11:36:37.693Z,39.17
2018-02-21T11:39:07.138Z,45.47
2018-02-21T11:41:35.660Z,42.13
2018-02-21T11:44:04.239Z,42.53
2018-02-21T11:46:32.831Z,43.87
2018-02-21T11:49:01.415Z,37.73
2018-02-21T11:51:30.001Z,41.03
2018-02-21T11:53:59.187Z,41.10
2018-02-21T11:56:27.918Z,34.63
2018-02-21T11:58:57.365Z,42.17
2018-02-21T12:01:27.097Z,38.70
2018-02-21T12:03:55.683Z,41.67
2018-02-21T12:06:30.246Z,35.53
2018-02-21T12:08:59.624Z,35.37
2018-02-21T12:11:28.357Z,37.23
2018-02-21T12:13:57.755Z,35.20
2018-02-21T12:16:27.095Z,37.17
2018-02-21T12:18:56.456Z,34.27
2018-02-21T12:21:25.855Z,37.60
2018-02-21T12:23:54.465Z,38.70
2018-02-21T12:26:23.884Z,35.30
2018-02-21T12:28:52.579Z,37.20
2018-02-21T12:31:21.210Z,32.53
2018-02-21T12:33:50.594Z,33.93
2018-02-21T12:36:24.581Z,39.33
2018-02-21T12:38:58.684Z,32.17
2018-02-21T12:41:32.796Z,32.97
2018-02-21T12:44:01.493Z,36.20
2018-02-21T12:46:33.300Z,35.60
2018-02-21T12:49:01.912Z,31.83
2018-02-21T12:51:30.482Z,32.83
2018-02-21T12:53:59.063Z,30.93
2018-02-21T12:56:33.424Z,32.10
2018-02-21T12:59:02.049Z,35.80
2018-02-21T13:01:38.889Z,31.90
2018-02-21T13:04:07.651Z,32.43
2018-02-21T13:06:42.177Z,31.07
2018-02-21T13:09:11.205Z,35.03
2018-02-21T13:11:40.573Z,35.40
2018-02-21T13:14:09.121Z,32.50
2018-02-21T13:16:37.710Z,31.40
2018-02-21T13:19:06.289Z,32.23
2018-02-21T13:21:34.914Z,37.93
2018-02-21T13:24:09.828Z,34.43
2018-02-21T13:26:38.405Z,39.53
2018-02-21T13:29:13.241Z,39.43
2018-02-21T13:31:43.025Z,38.30
2018-02-21T13:34:11.609Z,30.70
2018-02-21T13:36:40.200Z,29.40
2018-02-21T13:39:09.681Z,32.20
2018-02-21T13:41:38.231Z,30.43
2018-02-21T13:44:06.815Z,32.97
2018-02-21T13:46:35.606Z,38.40
2018-02-21T13:49:04.148Z,38.00
2018-02-21T13:51:33.527Z,39.70
2018-02-21T13:54:02.124Z,34.97
2018-02-21T13:56:30.776Z,34.70
2018-02-21T13:59:16.622Z,39.67
2018-02-21T14:01:45.179Z,34.77
2018-02-21T14:04:13.967Z,34.80
2018-02-21T14:06:42.549Z,39.17
2018-02-21T14:09:15.496Z,39.73
2018-02-21T14:11:44.069Z,38.87
2018-02-21T14:14:18.169Z,46.03
2018-02-21T14:16:47.512Z,40.70
2018-02-21T14:19:18.152Z,36.13
2018-02-21T14:21:46.724Z,36.47
2018-02-21T14:24:15.271Z,37.70
2018-02-21T14:26:44.735Z,33.57
2018-02-21T14:29:13.319Z,31.47
2018-02-21T14:31:41.928Z,36.37
2018-02-21T14:34:10.629Z,31.27
2018-02-21T14:36:39.206Z,36.07
2018-02-21T14:39:08.596Z,36.10
2018-02-21T14:41:37.168Z,42.47
2018-02-21T14:44:05.757Z,39.80
2018-02-21T14:46:34.332Z,42.00
2018-02-21T14:49:06.831Z,39.20
2018-02-21T14:51:35.443Z,36.27
2018-02-21T14:54:04.009Z,41.23
2018-02-21T14:56:32.579Z,39.00
2018-02-21T14:59:01.209Z,37.17
2018-02-21T15:01:30.579Z,36.80
2018-02-21T15:03:59.196Z,38.97
2018-02-21T15:06:28.511Z,37.07
2018-02-21T15:09:03.236Z,33.10
2018-02-21T15:11:32.553Z,31.47
2018-02-21T15:14:06.878Z,36.33
2018-02-21T15:16:35.425Z,37.37
2018-02-21T15:19:04.062Z,32.47
2018-02-21T15:21:32.652Z,35.83
2018-02-21T15:24:01.224Z,37.17
2018-02-21T15:26:29.805Z,32.43
2018-02-21T15:28:58.362Z,33.30
2018-02-21T15:31:26.983Z,38.13
2018-02-21T15:33:55.591Z,33.83
2018-02-21T15:36:24.170Z,31.43
2018-02-21T15:38:52.773Z,33.93
2018-02-21T15:41:21.429Z,34.33
2018-02-21T15:43:49.969Z,39.70
2018-02-21T15:46:18.517Z,36.00
2018-02-21T15:48:47.079Z,35.93
2018-02-21T15:51:15.626Z,33.43
2018-02-21T15:53:44.189Z,35.50
2018-02-21T15:56:12.751Z,33.97
2018-02-21T15:58:41.331Z,38.60
2018-02-21T16:01:10.658Z,39.77
2018-02-21T16:03:39.422Z,39.03
2018-02-21T16:06:08.942Z,35.57
2018-02-21T16:08:40.814Z,37.17
2018-02-21T16:11:09.438Z,39.80
2018-02-21T16:13:38.020Z,37.53
2018-02-21T16:16:06.619Z,37.30
2018-02-21T16:18:35.185Z,36.97
2018-02-21T16:21:03.740Z,33.70
2018-02-21T16:23:32.350Z,36.70
2018-02-21T16:26:00.985Z,35.33
2018-02-21T16:28:30.934Z,37.27
2018-02-21T16:30:59.562Z,35.53
2018-02-21T16:33:28.186Z,36.67
2018-02-21T16:35:56.800Z,36.70
2018-02-21T16:38:25.356Z,36.23
2018-02-21T16:40:56.005Z,37.77
2018-02-21T16:43:24.558Z,37.07
2018-02-21T16:45:53.970Z,37.20
2018-02-21T16:48:30.716Z,39.03
2018-02-21T16:50:59.545Z,40.53
2018-02-21T16:53:28.919Z,38.23
2018-02-21T16:55:57.516Z,38.20
2018-02-21T16:58:26.126Z,74.83
2018-02-21T17:00:54.715Z,47.70
2018-02-21T17:03:23.355Z,70.40
2018-02-21T17:05:51.965Z,38.97
2018-02-21T17:08:20.991Z,40.33
2018-02-21T17:10:49.601Z,46.67
2018-02-21T17:13:18.191Z,47.47
2018-02-21T17:15:46.917Z,45.90
2018-02-21T17:18:16.432Z,44.47
2018-02-21T17:20:45.601Z,47.30
2018-02-21T17:23:14.382Z,43.87
2018-02-21T17:25:42.976Z,48.43
2018-02-21T17:28:11.532Z,46.03
2018-02-21T17:30:40.058Z,48.47
2018-02-21T17:33:08.709Z,46.77
2018-02-21T17:35:37.364Z,44.97
2018-02-21T17:38:13.146Z,46.03
2018-02-21T17:40:47.228Z,47.03
2018-02-21T17:43:16.641Z,52.33
2018-02-21T17:45:45.995Z,46.87
2018-02-21T17:48:14.648Z,48.53
2018-02-21T17:50:43.271Z,56.53
2018-02-21T17:53:11.883Z,54.73
2018-02-21T17:55:40.483Z,53.70
2018-02-21T18:01:04.334Z,56.07
2018-02-21T18:03:32.932Z,55.57
2018-02-21T18:06:01.500Z,56.77
2018-02-21T18:08:30.127Z,55.37
2018-02-21T18:10:58.900Z,54.60
2018-02-21T18:13:27.545Z,53.20
2018-02-21T18:15:56.100Z,54.77
2018-02-21T18:18:25.795Z,56.50
2018-02-21T18:20:54.419Z,51.97
2018-02-21T18:23:23.764Z,54.60
2018-02-21T18:25:52.353Z,53.57
2018-02-21T18:28:21.008Z,51.23
2018-02-21T18:30:50.015Z,50.73
2018-02-21T18:33:18.576Z,56.83
2018-02-21T18:35:47.888Z,55.83
2018-02-21T18:38:16.497Z,57.37
2018-02-21T18:40:45.086Z,55.43
2018-02-21T18:43:13.720Z,58.77
2018-02-21T18:45:42.324Z,51.60
2018-02-21T18:48:10.923Z,54.50
2018-02-21T18:50:41.498Z,56.77
2018-02-21T18:53:10.108Z,56.07
2018-02-21T18:55:38.688Z,58.57
2018-02-21T18:58:07.287Z,60.60
2018-02-21T19:00:35.924Z,60.10
2018-02-21T19:03:04.373Z,54.93
2018-02-21T19:05:33.738Z,53.83
2018-02-21T19:08:02.355Z,53.07
2018-02-21T19:10:30.995Z,53.97
2018-02-21T19:13:05.852Z,54.37
2018-02-21T19:15:34.489Z,50.93
2018-02-21T19:18:03.070Z,50.07
2018-02-21T19:20:32.454Z,54.90
2018-02-21T19:23:01.874Z,54.27
2018-02-21T19:25:31.286Z,54.90
2018-02-21T19:27:59.857Z,60.03
2018-02-21T19:30:28.430Z,59.53
2018-02-21T19:32:57.002Z,58.10
2018-02-21T19:35:35.191Z,57.50
2018-02-21T19:38:04.075Z,58.13
2018-02-21T19:40:38.451Z,52.17
2018-02-21T19:43:07.341Z,56.45
2018-02-21T19:45:36.194Z,56.20
2018-02-21T19:48:04.799Z,57.03
2018-02-21T19:50:33.391Z,59.70
2018-02-21T19:53:02.277Z,56.58
2018-02-21T19:55:31.156Z,66.78
2018-02-21T19:57:59.727Z,56.47
2018-02-21T20:00:28.294Z,56.33
2018-02-21T20:02:57.940Z,57.45
2018-02-21T20:05:26.615Z,55.20
2018-02-21T20:07:55.675Z,61.47
2018-02-21T20:10:24.134Z,59.13
2018-02-21T20:12:53.028Z,60.90
2018-02-21T20:15:21.874Z,59.00
2018-02-21T20:17:56.730Z,54.47
2018-02-21T20:20:25.337Z,53.40
2018-02-21T20:22:54.221Z,55.15
2018-02-21T20:25:22.785Z,55.40
2018-02-21T20:27:51.719Z,58.05
2018-02-21T20:30:21.079Z,58.70
2018-02-21T20:32:49.694Z,53.93
2018-02-21T20:35:18.311Z,58.90
2018-02-21T20:37:47.209Z,54.80
2018-02-21T20:40:19.452Z,57.70
2018-02-21T20:42:48.046Z,55.93
2018-02-21T20:45:16.888Z,53.15
2018-02-21T20:47:45.467Z,56.57
2018-02-21T20:50:15.158Z,54.65
2018-02-21T20:52:44.016Z,60.15
2018-02-21T20:55:12.921Z,61.92
2018-02-21T20:57:41.416Z,57.87
2018-02-21T21:00:10.278Z,57.28
2018-02-21T21:02:39.116Z,61.90
2018-02-21T21:05:08.053Z,52.45
2018-02-21T21:07:36.918Z,52.65
2018-02-21T21:10:06.714Z,51.55
2018-02-21T21:12:35.286Z,55.40
2018-02-21T21:15:07.204Z,50.85
2018-02-21T21:17:36.850Z,46.83
2018-02-21T21:20:05.131Z,51.37
2018-02-21T21:22:33.992Z,55.17
2018-02-21T21:25:02.861Z,57.22
2018-02-21T21:27:32.695Z,51.20
2018-02-21T21:30:01.629Z,53.03
2018-02-21T21:32:30.473Z,57.72
2018-02-21T21:35:01.594Z,52.05
2018-02-21T21:37:30.471Z,50.95
2018-02-21T21:40:09.923Z,50.70
2018-02-21T21:42:39.653Z,50.38
2018-02-21T21:45:08.545Z,53.42
2018-02-21T21:47:37.527Z,51.37
2018-02-21T21:50:06.968Z,51.10
2018-02-21T21:52:35.906Z,53.58
2018-02-21T21:55:04.831Z,59.53
2018-02-21T21:57:33.908Z,58.47
2018-02-21T22:00:02.924Z,49.75
2018-02-21T22:02:32.048Z,47.15
2018-02-21T22:05:00.929Z,57.10
2018-02-21T22:07:36.921Z,54.58
2018-02-21T22:10:05.835Z,52.53
2018-02-21T22:12:52.689Z,53.28
2018-02-21T22:15:22.445Z,47.92
2018-02-21T22:17:51.321Z,50.95
2018-02-21T22:20:20.202Z,50.83
2018-02-21T22:22:49.129Z,52.05
2018-02-21T22:25:18.025Z,51.47
2018-02-21T22:27:46.923Z,50.28
2018-02-21T22:30:15.772Z,53.28
2018-02-21T22:32:45.342Z,53.70
2018-02-21T22:35:14.210Z,50.10
2018-02-21T22:37:43.072Z,47.78
2018-02-21T22:40:12.735Z,50.12
2018-02-21T22:42:41.599Z,49.05
2018-02-21T22:45:10.458Z,47.08
2018-02-21T22:47:40.095Z,51.92
2018-02-21T22:50:08.928Z,55.97
2018-02-21T22:52:37.751Z,61.03
2018-02-21T22:55:12.070Z,58.85
2018-02-21T22:57:40.925Z,47.78
2018-02-21T23:00:09.798Z,49.42
2018-02-21T23:02:38.632Z,41.25
2018-02-21T23:05:07.501Z,51.17
2018-02-21T23:07:36.377Z,46.00
2018-02-21T23:10:05.269Z,47.45
2018-02-21T23:12:34.910Z,43.80
2018-02-21T23:15:03.796Z,47.35
2018-02-21T23:17:32.665Z,54.70
2018-02-21T23:20:01.530Z,49.78
2018-02-21T23:22:30.389Z,38.88
2018-02-21T23:24:59.255Z,45.12
2018-02-21T23:27:28.123Z,46.00
2018-02-21T23:29:56.989Z,44.45
2018-02-21T23:32:25.847Z,44.22
2018-02-21T23:34:54.731Z,46.67
2018-02-21T23:37:23.736Z,42.88
2018-02-21T23:39:52.598Z,43.13
2018-02-21T23:42:21.468Z,41.20
2018-02-21T23:44:50.319Z,39.53
2018-02-21T23:47:19.275Z,38.75
2018-02-21T23:49:48.150Z,38.38
2018-02-21T23:52:17.021Z,42.55
2018-02-21T23:54:55.462Z,41.15
2018-02-21T23:57:24.308Z,34.50
2018-02-21T23:59:53.163Z,40.28
